sensor_id;sensor_type;location;lat;lon;timestamp;P1;durP1;ratioP1;P2;durP2;ratioP2
37851;SDS011;23691;52.486;4.650;2022-12-11T00:00:51;68.93;;;41.00;;
37851;SDS011;23691;52.486;4.650;2022-12-11T00:06:56;59.33;;;22.52;;
37851;SDS011;23691;52.486;4.650;2022-12-11T00:10:04;74.65;;;42.78;;
37851;SDS011;23691;52.486;4.650;2022-12-11T00:13:07;68.22;;;39.88;;
37851;SDS011;23691;52.486;4.650;2022-12-11T00:16:09;65.60;;;37.20;;
37851;SDS011;23691;52.486;4.650;2022-12-11T00:19:14;66.40;;;37.40;;
37851;SDS011;23691;52.486;4.650;2022-12-11T00:21:48;69.05;;;37.83;;
37851;SDS011;23691;52.486;4.650;2022-12-11T00:24:27;48.00;;;20.45;;
37851;SDS011;23691;52.486;4.650;2022-12-11T00:26:53;45.53;;;19.17;;
37851;SDS011;23691;52.486;4.650;2022-12-11T00:29:24;65.25;;;38.17;;
37851;SDS011;23691;52.486;4.650;2022-12-11T00:31:50;68.45;;;39.33;;
37851;SDS011;23691;52.486;4.650;2022-12-11T00:34:19;50.90;;;20.45;;
37851;SDS011;23691;52.486;4.650;2022-12-11T00:36:44;43.35;;;19.20;;
37851;SDS011;23691;52.486;4.650;2022-12-11T00:39:11;67.50;;;38.22;;
37851;SDS011;23691;52.486;4.650;2022-12-11T00:41:36;50.60;;;20.60;;
37851;SDS011;23691;52.486;4.650;2022-12-11T00:44:13;48.60;;;20.95;;
37851;SDS011;23691;52.486;4.650;2022-12-11T00:46:58;68.90;;;37.05;;
37851;SDS011;23691;52.486;4.650;2022-12-11T00:49:30;47.33;;;20.15;;
37851;SDS011;23691;52.486;4.650;2022-12-11T00:52:01;47.58;;;17.75;;
37851;SDS011;23691;52.486;4.650;2022-12-11T00:54:47;46.38;;;17.83;;
37851;SDS011;23691;52.486;4.650;2022-12-11T00:57:14;47.63;;;18.25;;
37851;SDS011;23691;52.486;4.650;2022-12-11T00:59:44;44.63;;;18.70;;
37851;SDS011;23691;52.486;4.650;2022-12-11T01:02:29;64.72;;;36.90;;
37851;SDS011;23691;52.486;4.650;2022-12-11T01:05:06;52.15;;;20.90;;
37851;SDS011;23691;52.486;4.650;2022-12-11T01:07:37;41.45;;;17.95;;
37851;SDS011;23691;52.486;4.650;2022-12-11T01:10:09;42.00;;;18.10;;
37851;SDS011;23691;52.486;4.650;2022-12-11T01:12:51;56.20;;;33.92;;
37851;SDS011;23691;52.486;4.650;2022-12-11T01:15:30;56.00;;;34.40;;
37851;SDS011;23691;52.486;4.650;2022-12-11T01:18:11;59.97;;;34.72;;
37851;SDS011;23691;52.486;4.650;2022-12-11T01:20:40;60.83;;;34.47;;
37851;SDS011;23691;52.486;4.650;2022-12-11T01:23:19;55.97;;;33.72;;
37851;SDS011;23691;52.486;4.650;2022-12-11T01:25:48;54.17;;;32.67;;
37851;SDS011;23691;52.486;4.650;2022-12-11T01:28:34;53.45;;;33.42;;
37851;SDS011;23691;52.486;4.650;2022-12-11T01:31:06;54.65;;;32.95;;
37851;SDS011;23691;52.486;4.650;2022-12-11T01:33:39;54.92;;;33.08;;
37851;SDS011;23691;52.486;4.650;2022-12-11T01:36:18;56.85;;;33.33;;
37851;SDS011;23691;52.486;4.650;2022-12-11T01:38:50;41.00;;;18.20;;
37851;SDS011;23691;52.486;4.650;2022-12-11T01:41:30;37.22;;;16.25;;
37851;SDS011;23691;52.486;4.650;2022-12-11T01:46:55;52.25;;;31.10;;
37851;SDS011;23691;52.486;4.650;2022-12-11T01:49:25;53.75;;;31.48;;
37851;SDS011;23691;52.486;4.650;2022-12-11T01:52:01;49.33;;;30.60;;
37851;SDS011;23691;52.486;4.650;2022-12-11T01:54:32;35.72;;;16.45;;
37851;SDS011;23691;52.486;4.650;2022-12-11T01:57:00;47.65;;;29.95;;
37851;SDS011;23691;52.486;4.650;2022-12-11T01:59:42;46.83;;;29.17;;
37851;SDS011;23691;52.486;4.650;2022-12-11T02:02:14;37.03;;;16.15;;
37851;SDS011;23691;52.486;4.650;2022-12-11T02:04:47;53.28;;;31.15;;
37851;SDS011;23691;52.486;4.650;2022-12-11T02:07:14;36.35;;;16.67;;
37851;SDS011;23691;52.486;4.650;2022-12-11T02:09:45;38.08;;;16.50;;
37851;SDS011;23691;52.486;4.650;2022-12-11T02:15:25;40.60;;;17.55;;
37851;SDS011;23691;52.486;4.650;2022-12-11T02:18:06;40.17;;;17.90;;
37851;SDS011;23691;52.486;4.650;2022-12-11T02:21:02;44.80;;;27.77;;
37851;SDS011;23691;52.486;4.650;2022-12-11T02:29:19;37.65;;;14.85;;
37851;SDS011;23691;52.486;4.650;2022-12-11T02:31:52;35.45;;;15.68;;
37851;SDS011;23691;52.486;4.650;2022-12-11T02:34:31;40.08;;;16.42;;
37851;SDS011;23691;52.486;4.650;2022-12-11T02:37:03;36.08;;;16.00;;
37851;SDS011;23691;52.486;4.650;2022-12-11T02:39:34;48.10;;;30.05;;
37851;SDS011;23691;52.486;4.650;2022-12-11T02:42:04;53.63;;;31.48;;
37851;SDS011;23691;52.486;4.650;2022-12-11T02:44:32;52.45;;;32.35;;
37851;SDS011;23691;52.486;4.650;2022-12-11T02:46:59;51.95;;;31.75;;
37851;SDS011;23691;52.486;4.650;2022-12-11T02:49:28;41.90;;;17.90;;
37851;SDS011;23691;52.486;4.650;2022-12-11T02:51:56;53.20;;;33.03;;
37851;SDS011;23691;52.486;4.650;2022-12-11T02:54:24;52.38;;;33.47;;
37851;SDS011;23691;52.486;4.650;2022-12-11T02:57:11;55.78;;;34.60;;
37851;SDS011;23691;52.486;4.650;2022-12-11T02:59:41;39.10;;;18.43;;
37851;SDS011;23691;52.486;4.650;2022-12-11T03:04:36;38.38;;;17.25;;
37851;SDS011;23691;52.486;4.650;2022-12-11T03:07:06;56.85;;;36.58;;
37851;SDS011;23691;52.486;4.650;2022-12-11T03:09:38;40.90;;;19.10;;
37851;SDS011;23691;52.486;4.650;2022-12-11T03:12:06;47.25;;;18.90;;
37851;SDS011;23691;52.486;4.650;2022-12-11T03:14:37;43.42;;;18.27;;
37851;SDS011;23691;52.486;4.650;2022-12-11T03:23:48;43.45;;;20.33;;
37851;SDS011;23691;52.486;4.650;2022-12-11T03:26:42;41.25;;;19.15;;
37851;SDS011;23691;52.486;4.650;2022-12-11T03:29:48;45.45;;;20.17;;
37851;SDS011;23691;52.486;4.650;2022-12-11T03:32:52;39.30;;;18.05;;
37851;SDS011;23691;52.486;4.650;2022-12-11T03:35:42;44.72;;;20.75;;
37851;SDS011;23691;52.486;4.650;2022-12-11T03:38:20;43.30;;;18.60;;
37851;SDS011;23691;52.486;4.650;2022-12-11T03:40:58;34.35;;;16.33;;
37851;SDS011;23691;52.486;4.650;2022-12-11T03:43:50;31.63;;;15.70;;
37851;SDS011;23691;52.486;4.650;2022-12-11T03:51:03;33.35;;;14.55;;
37851;SDS011;23691;52.486;4.650;2022-12-11T03:53:36;34.90;;;15.82;;
37851;SDS011;23691;52.486;4.650;2022-12-11T03:56:13;44.28;;;29.17;;
37851;SDS011;23691;52.486;4.650;2022-12-11T04:02:17;32.75;;;15.65;;
37851;SDS011;23691;52.486;4.650;2022-12-11T04:04:43;44.47;;;28.95;;
37851;SDS011;23691;52.486;4.650;2022-12-11T04:07:21;42.95;;;28.67;;
37851;SDS011;23691;52.486;4.650;2022-12-11T04:09:53;32.38;;;14.60;;
37851;SDS011;23691;52.486;4.650;2022-12-11T04:12:31;31.58;;;14.65;;
37851;SDS011;23691;52.486;4.650;2022-12-11T04:15:07;27.10;;;12.45;;
37851;SDS011;23691;52.486;4.650;2022-12-11T04:17:39;30.30;;;12.20;;
37851;SDS011;23691;52.486;4.650;2022-12-11T04:20:48;27.95;;;12.48;;
37851;SDS011;23691;52.486;4.650;2022-12-11T04:23:38;37.60;;;24.33;;
37851;SDS011;23691;52.486;4.650;2022-12-11T04:26:23;34.75;;;24.17;;
37851;SDS011;23691;52.486;4.650;2022-12-11T04:29:02;34.60;;;23.50;;
37851;SDS011;23691;52.486;4.650;2022-12-11T04:32:17;28.42;;;12.85;;
37851;SDS011;23691;52.486;4.650;2022-12-11T04:34:54;34.67;;;23.50;;
37851;SDS011;23691;52.486;4.650;2022-12-11T04:37:25;36.65;;;24.10;;
37851;SDS011;23691;52.486;4.650;2022-12-11T04:39:54;36.65;;;24.20;;
37851;SDS011;23691;52.486;4.650;2022-12-11T04:42:22;36.35;;;24.17;;
37851;SDS011;23691;52.486;4.650;2022-12-11T04:44:57;26.40;;;12.32;;
37851;SDS011;23691;52.486;4.650;2022-12-11T04:47:28;25.83;;;10.88;;
37851;SDS011;23691;52.486;4.650;2022-12-11T04:49:54;35.47;;;23.27;;
37851;SDS011;23691;52.486;4.650;2022-12-11T04:52:19;27.17;;;12.30;;
37851;SDS011;23691;52.486;4.650;2022-12-11T04:54:45;25.60;;;11.20;;
37851;SDS011;23691;52.486;4.650;2022-12-11T04:57:18;38.67;;;25.67;;
37851;SDS011;23691;52.486;4.650;2022-12-11T04:59:45;38.97;;;25.97;;
37851;SDS011;23691;52.486;4.650;2022-12-11T05:02:12;43.83;;;28.05;;
37851;SDS011;23691;52.486;4.650;2022-12-11T05:04:38;32.17;;;14.40;;
37851;SDS011;23691;52.486;4.650;2022-12-11T05:07:14;49.20;;;30.27;;
37851;SDS011;23691;52.486;4.650;2022-12-11T05:09:41;46.38;;;28.42;;
37851;SDS011;23691;52.486;4.650;2022-12-11T05:12:10;36.40;;;16.48;;
37851;SDS011;23691;52.486;4.650;2022-12-11T05:18:00;29.15;;;13.52;;
37851;SDS011;23691;52.486;4.650;2022-12-11T05:22:54;47.47;;;29.15;;
37851;SDS011;23691;52.486;4.650;2022-12-11T05:25:19;34.15;;;14.73;;
37851;SDS011;23691;52.486;4.650;2022-12-11T05:27:48;31.90;;;14.55;;
37851;SDS011;23691;52.486;4.650;2022-12-11T05:30:22;33.60;;;15.95;;
37851;SDS011;23691;52.486;4.650;2022-12-11T05:33:18;48.83;;;29.13;;
37851;SDS011;23691;52.486;4.650;2022-12-11T05:36:05;34.90;;;13.95;;
37851;SDS011;23691;52.486;4.650;2022-12-11T05:38:45;35.55;;;14.45;;
37851;SDS011;23691;52.486;4.650;2022-12-11T05:41:13;26.83;;;11.98;;
37851;SDS011;23691;52.486;4.650;2022-12-11T05:43:41;34.28;;;15.05;;
37851;SDS011;23691;52.486;4.650;2022-12-11T05:46:08;31.50;;;13.88;;
37851;SDS011;23691;52.486;4.650;2022-12-11T05:48:49;32.90;;;14.20;;
37851;SDS011;23691;52.486;4.650;2022-12-11T05:51:38;48.10;;;28.08;;
37851;SDS011;23691;52.486;4.650;2022-12-11T05:54:08;47.13;;;29.08;;
37851;SDS011;23691;52.486;4.650;2022-12-11T05:56:34;48.92;;;29.10;;
37851;SDS011;23691;52.486;4.650;2022-12-11T05:59:01;36.28;;;15.70;;
37851;SDS011;23691;52.486;4.650;2022-12-11T06:01:34;50.05;;;28.48;;
37851;SDS011;23691;52.486;4.650;2022-12-11T06:04:02;32.60;;;14.02;;
37851;SDS011;23691;52.486;4.650;2022-12-11T06:06:47;32.45;;;12.77;;
37851;SDS011;23691;52.486;4.650;2022-12-11T06:09:27;31.50;;;14.30;;
37851;SDS011;23691;52.486;4.650;2022-12-11T06:12:18;33.13;;;13.55;;
37851;SDS011;23691;52.486;4.650;2022-12-11T06:15:04;31.95;;;13.07;;
37851;SDS011;23691;52.486;4.650;2022-12-11T06:20:43;34.38;;;14.55;;
37851;SDS011;23691;52.486;4.650;2022-12-11T06:23:19;35.97;;;13.52;;
37851;SDS011;23691;52.486;4.650;2022-12-11T06:26:04;48.80;;;27.77;;
37851;SDS011;23691;52.486;4.650;2022-12-11T06:28:38;34.72;;;14.57;;
37851;SDS011;23691;52.486;4.650;2022-12-11T06:38:34;47.75;;;27.45;;
37851;SDS011;23691;52.486;4.650;2022-12-11T06:41:03;33.22;;;13.70;;
37851;SDS011;23691;52.486;4.650;2022-12-11T06:46:27;36.90;;;12.82;;
37851;SDS011;23691;52.486;4.650;2022-12-11T06:49:00;25.52;;;10.35;;
37851;SDS011;23691;52.486;4.650;2022-12-11T06:51:53;40.13;;;23.77;;
37851;SDS011;23691;52.486;4.650;2022-12-11T06:54:24;27.27;;;11.63;;
37851;SDS011;23691;52.486;4.650;2022-12-11T06:56:52;29.05;;;12.57;;
37851;SDS011;23691;52.486;4.650;2022-12-11T06:59:19;39.28;;;23.33;;
37851;SDS011;23691;52.486;4.650;2022-12-11T07:01:47;41.22;;;23.20;;
37851;SDS011;23691;52.486;4.650;2022-12-11T07:04:13;29.83;;;11.55;;
37851;SDS011;23691;52.486;4.650;2022-12-11T07:06:41;27.63;;;11.50;;
37851;SDS011;23691;52.486;4.650;2022-12-11T07:09:11;38.30;;;22.98;;
37851;SDS011;23691;52.486;4.650;2022-12-11T07:11:37;28.33;;;11.63;;
37851;SDS011;23691;52.486;4.650;2022-12-11T07:14:03;26.75;;;11.43;;
37851;SDS011;23691;52.486;4.650;2022-12-11T07:16:32;27.23;;;11.75;;
37851;SDS011;23691;52.486;4.650;2022-12-11T07:19:02;35.85;;;22.20;;
37851;SDS011;23691;52.486;4.650;2022-12-11T07:21:27;37.05;;;22.23;;
37851;SDS011;23691;52.486;4.650;2022-12-11T07:23:53;31.10;;;12.60;;
37851;SDS011;23691;52.486;4.650;2022-12-11T07:26:20;29.45;;;12.27;;
37851;SDS011;23691;52.486;4.650;2022-12-11T07:28:46;36.35;;;20.35;;
37851;SDS011;23691;52.486;4.650;2022-12-11T07:31:17;37.88;;;22.65;;
37851;SDS011;23691;52.486;4.650;2022-12-11T07:33:45;29.02;;;11.43;;
37851;SDS011;23691;52.486;4.650;2022-12-11T07:36:12;37.88;;;22.17;;
37851;SDS011;23691;52.486;4.650;2022-12-11T07:38:39;30.08;;;12.43;;
37851;SDS011;23691;52.486;4.650;2022-12-11T07:41:09;38.25;;;22.98;;
37851;SDS011;23691;52.486;4.650;2022-12-11T07:43:35;39.78;;;23.27;;
37851;SDS011;23691;52.486;4.650;2022-12-11T07:46:02;31.15;;;11.65;;
37851;SDS011;23691;52.486;4.650;2022-12-11T07:48:29;25.17;;;11.57;;
37851;SDS011;23691;52.486;4.650;2022-12-11T07:50:55;26.52;;;11.65;;
37851;SDS011;23691;52.486;4.650;2022-12-11T07:53:33;37.28;;;22.90;;
37851;SDS011;23691;52.486;4.650;2022-12-11T08:00:09;40.17;;;24.38;;
37851;SDS011;23691;52.486;4.650;2022-12-11T08:03:42;40.90;;;23.75;;
37851;SDS011;23691;52.486;4.650;2022-12-11T08:07:03;30.85;;;12.82;;
37851;SDS011;23691;52.486;4.650;2022-12-11T08:13:59;27.67;;;12.00;;
37851;SDS011;23691;52.486;4.650;2022-12-11T08:30:02;29.63;;;13.97;;
37851;SDS011;23691;52.486;4.650;2022-12-11T08:33:36;27.75;;;12.10;;
37851;SDS011;23691;52.486;4.650;2022-12-11T08:36:37;36.45;;;22.08;;
37851;SDS011;23691;52.486;4.650;2022-12-11T08:39:35;27.30;;;11.77;;
37851;SDS011;23691;52.486;4.650;2022-12-11T08:42:11;37.13;;;21.73;;
37851;SDS011;23691;52.486;4.650;2022-12-11T08:47:42;29.60;;;11.93;;
37851;SDS011;23691;52.486;4.650;2022-12-11T08:50:08;28.33;;;11.93;;
37851;SDS011;23691;52.486;4.650;2022-12-11T08:52:36;28.42;;;13.50;;
37851;SDS011;23691;52.486;4.650;2022-12-11T08:55:04;33.97;;;20.25;;
37851;SDS011;23691;52.486;4.650;2022-12-11T08:57:35;26.40;;;11.88;;
37851;SDS011;23691;52.486;4.650;2022-12-11T09:00:04;25.65;;;11.70;;
37851;SDS011;23691;52.486;4.650;2022-12-11T09:02:36;26.48;;;10.85;;
37851;SDS011;23691;52.486;4.650;2022-12-11T09:05:10;25.08;;;11.10;;
37851;SDS011;23691;52.486;4.650;2022-12-11T09:07:52;23.67;;;10.40;;
37851;SDS011;23691;52.486;4.650;2022-12-11T09:10:45;26.08;;;11.55;;
37851;SDS011;23691;52.486;4.650;2022-12-11T09:13:23;34.83;;;20.40;;
37851;SDS011;23691;52.486;4.650;2022-12-11T09:15:57;37.20;;;21.95;;
37851;SDS011;23691;52.486;4.650;2022-12-11T09:21:33;25.02;;;10.45;;
37851;SDS011;23691;52.486;4.650;2022-12-11T09:24:17;26.67;;;11.52;;
37851;SDS011;23691;52.486;4.650;2022-12-11T09:27:08;35.13;;;20.98;;
37851;SDS011;23691;52.486;4.650;2022-12-11T09:29:35;25.75;;;11.30;;
37851;SDS011;23691;52.486;4.650;2022-12-11T09:32:06;37.53;;;22.77;;
37851;SDS011;23691;52.486;4.650;2022-12-11T09:34:33;35.60;;;20.85;;
37851;SDS011;23691;52.486;4.650;2022-12-11T09:37:02;30.35;;;12.38;;
37851;SDS011;23691;52.486;4.650;2022-12-11T09:39:28;25.77;;;11.45;;
37851;SDS011;23691;52.486;4.650;2022-12-11T09:44:45;26.95;;;11.57;;
37851;SDS011;23691;52.486;4.650;2022-12-11T09:47:18;27.65;;;11.80;;
37851;SDS011;23691;52.486;4.650;2022-12-11T09:50:19;36.75;;;21.25;;
37851;SDS011;23691;52.486;4.650;2022-12-11T09:53:10;25.15;;;11.48;;
37851;SDS011;23691;52.486;4.650;2022-12-11T09:55:57;28.08;;;11.25;;
37851;SDS011;23691;52.486;4.650;2022-12-11T10:13:09;31.65;;;19.75;;
37851;SDS011;23691;52.486;4.650;2022-12-11T10:15:59;31.88;;;19.20;;
37851;SDS011;23691;52.486;4.650;2022-12-11T10:18:34;32.78;;;19.40;;
37851;SDS011;23691;52.486;4.650;2022-12-11T10:21:03;37.75;;;22.77;;
37851;SDS011;23691;52.486;4.650;2022-12-11T10:23:32;45.05;;;27.52;;
37851;SDS011;23691;52.486;4.650;2022-12-11T10:26:13;33.78;;;20.67;;
37851;SDS011;23691;52.486;4.650;2022-12-11T10:28:42;53.30;;;34.92;;
37851;SDS011;23691;52.486;4.650;2022-12-11T10:34:10;80.85;;;37.17;;
37851;SDS011;23691;52.486;4.650;2022-12-11T10:36:46;47.53;;;30.17;;
37851;SDS011;23691;52.486;4.650;2022-12-11T10:39:16;50.35;;;32.25;;
37851;SDS011;23691;52.486;4.650;2022-12-11T10:41:54;48.30;;;23.05;;
37851;SDS011;23691;52.486;4.650;2022-12-11T10:44:32;62.90;;;37.63;;
37851;SDS011;23691;52.486;4.650;2022-12-11T10:47:05;40.65;;;25.88;;
37851;SDS011;23691;52.486;4.650;2022-12-11T10:49:35;37.78;;;23.25;;
37851;SDS011;23691;52.486;4.650;2022-12-11T10:52:08;28.13;;;13.03;;
37851;SDS011;23691;52.486;4.650;2022-12-11T10:54:37;49.17;;;18.17;;
37851;SDS011;23691;52.486;4.650;2022-12-11T10:57:05;57.88;;;19.98;;
37851;SDS011;23691;52.486;4.650;2022-12-11T10:59:45;91.32;;;42.55;;
37851;SDS011;23691;52.486;4.650;2022-12-11T11:05:25;36.85;;;15.73;;
37851;SDS011;23691;52.486;4.650;2022-12-11T11:10:49;29.10;;;13.45;;
37851;SDS011;23691;52.486;4.650;2022-12-11T11:13:32;27.02;;;12.18;;
37851;SDS011;23691;52.486;4.650;2022-12-11T11:16:19;27.88;;;11.90;;
37851;SDS011;23691;52.486;4.650;2022-12-11T11:18:52;29.50;;;12.35;;
37851;SDS011;23691;52.486;4.650;2022-12-11T11:21:23;35.05;;;16.30;;
37851;SDS011;23691;52.486;4.650;2022-12-11T11:23:51;37.13;;;21.90;;
37851;SDS011;23691;52.486;4.650;2022-12-11T11:26:18;30.13;;;18.65;;
37851;SDS011;23691;52.486;4.650;2022-12-11T11:31:14;26.95;;;16.85;;
37851;SDS011;23691;52.486;4.650;2022-12-11T11:34:04;29.38;;;17.65;;
37851;SDS011;23691;52.486;4.650;2022-12-11T11:36:41;31.52;;;20.15;;
37851;SDS011;23691;52.486;4.650;2022-12-11T11:42:09;34.65;;;21.50;;
37851;SDS011;23691;52.486;4.650;2022-12-11T11:47:37;48.15;;;26.20;;
37851;SDS011;23691;52.486;4.650;2022-12-11T11:50:11;61.38;;;30.20;;
37851;SDS011;23691;52.486;4.650;2022-12-11T11:52:52;32.55;;;17.15;;
37851;SDS011;23691;52.486;4.650;2022-12-11T11:58:21;29.40;;;16.42;;
37851;SDS011;23691;52.486;4.650;2022-12-11T12:00:57;27.73;;;15.65;;
37851;SDS011;23691;52.486;4.650;2022-12-11T12:03:28;28.27;;;11.50;;
37851;SDS011;23691;52.486;4.650;2022-12-11T12:14:29;23.98;;;10.93;;
37851;SDS011;23691;52.486;4.650;2022-12-11T12:22:23;31.40;;;12.77;;
37851;SDS011;23691;52.486;4.650;2022-12-11T12:36:10;29.88;;;18.85;;
37851;SDS011;23691;52.486;4.650;2022-12-11T12:38:57;44.00;;;27.10;;
37851;SDS011;23691;52.486;4.650;2022-12-11T12:41:39;37.40;;;23.40;;
37851;SDS011;23691;52.486;4.650;2022-12-11T12:44:13;32.42;;;20.75;;
37851;SDS011;23691;52.486;4.650;2022-12-11T12:52:09;38.00;;;23.85;;
37851;SDS011;23691;52.486;4.650;2022-12-11T12:54:39;37.25;;;22.33;;
37851;SDS011;23691;52.486;4.650;2022-12-11T12:57:06;32.90;;;14.43;;
37851;SDS011;23691;52.486;4.650;2022-12-11T12:59:32;41.88;;;23.40;;
37851;SDS011;23691;52.486;4.650;2022-12-11T13:01:58;42.35;;;26.58;;
37851;SDS011;23691;52.486;4.650;2022-12-11T13:04:27;42.15;;;25.55;;
37851;SDS011;23691;52.486;4.650;2022-12-11T13:06:58;38.33;;;22.88;;
37851;SDS011;23691;52.486;4.650;2022-12-11T13:09:35;38.07;;;15.13;;
37851;SDS011;23691;52.486;4.650;2022-12-11T13:12:01;32.17;;;14.45;;
37851;SDS011;23691;52.486;4.650;2022-12-11T13:14:37;29.95;;;12.93;;
37851;SDS011;23691;52.486;4.650;2022-12-11T13:17:07;31.98;;;13.90;;
37851;SDS011;23691;52.486;4.650;2022-12-11T13:19:49;36.45;;;22.40;;
37851;SDS011;23691;52.486;4.650;2022-12-11T13:22:27;32.17;;;13.93;;
37851;SDS011;23691;52.486;4.650;2022-12-11T13:24:59;38.20;;;23.67;;
37851;SDS011;23691;52.486;4.650;2022-12-11T13:27:39;39.70;;;25.65;;
37851;SDS011;23691;52.486;4.650;2022-12-11T13:32:40;32.08;;;13.65;;
37851;SDS011;23691;52.486;4.650;2022-12-11T13:35:11;31.92;;;13.75;;
37851;SDS011;23691;52.486;4.650;2022-12-11T13:37:40;29.02;;;13.27;;
37851;SDS011;23691;52.486;4.650;2022-12-11T13:40:14;36.83;;;22.42;;
37851;SDS011;23691;52.486;4.650;2022-12-11T13:42:47;35.53;;;21.73;;
37851;SDS011;23691;52.486;4.650;2022-12-11T13:47:59;33.05;;;21.00;;
37851;SDS011;23691;52.486;4.650;2022-12-11T13:50:29;35.47;;;21.30;;
37851;SDS011;23691;52.486;4.650;2022-12-11T13:52:58;39.65;;;24.33;;
37851;SDS011;23691;52.486;4.650;2022-12-11T13:55:26;39.30;;;23.70;;
37851;SDS011;23691;52.486;4.650;2022-12-11T13:57:56;36.50;;;23.48;;
37851;SDS011;23691;52.486;4.650;2022-12-11T14:00:23;36.67;;;22.77;;
37851;SDS011;23691;52.486;4.650;2022-12-11T14:02:51;37.60;;;22.70;;
37851;SDS011;23691;52.486;4.650;2022-12-11T14:05:18;38.80;;;22.10;;
37851;SDS011;23691;52.486;4.650;2022-12-11T14:07:49;35.72;;;21.58;;
37851;SDS011;23691;52.486;4.650;2022-12-11T14:10:17;36.70;;;21.67;;
37851;SDS011;23691;52.486;4.650;2022-12-11T14:12:47;28.95;;;13.07;;
37851;SDS011;23691;52.486;4.650;2022-12-11T14:15:17;28.20;;;11.82;;
37851;SDS011;23691;52.486;4.650;2022-12-11T14:17:46;33.83;;;20.75;;
37851;SDS011;23691;52.486;4.650;2022-12-11T14:20:19;33.88;;;20.40;;
37851;SDS011;23691;52.486;4.650;2022-12-11T14:22:49;29.38;;;12.75;;
37851;SDS011;23691;52.486;4.650;2022-12-11T14:25:17;27.67;;;11.50;;
37851;SDS011;23691;52.486;4.650;2022-12-11T14:27:52;27.77;;;11.88;;
37851;SDS011;23691;52.486;4.650;2022-12-11T14:30:20;29.85;;;12.50;;
37851;SDS011;23691;52.486;4.650;2022-12-11T14:32:46;29.77;;;12.65;;
37851;SDS011;23691;52.486;4.650;2022-12-11T14:35:24;27.90;;;12.23;;
37851;SDS011;23691;52.486;4.650;2022-12-11T14:37:52;35.38;;;21.65;;
37851;SDS011;23691;52.486;4.650;2022-12-11T14:40:19;35.38;;;22.67;;
37851;SDS011;23691;52.486;4.650;2022-12-11T14:42:51;37.35;;;23.02;;
37851;SDS011;23691;52.486;4.650;2022-12-11T14:45:29;31.25;;;13.57;;
37851;SDS011;23691;52.486;4.650;2022-12-11T14:48:08;33.95;;;13.02;;
37851;SDS011;23691;52.486;4.650;2022-12-11T14:50:52;40.80;;;24.23;;
37851;SDS011;23691;52.486;4.650;2022-12-11T14:53:23;42.28;;;25.02;;
37851;SDS011;23691;52.486;4.650;2022-12-11T14:55:54;35.50;;;14.70;;
37851;SDS011;23691;52.486;4.650;2022-12-11T14:58:29;33.13;;;13.70;;
37851;SDS011;23691;52.486;4.650;2022-12-11T15:01:02;51.05;;;20.90;;
37851;SDS011;23691;52.486;4.650;2022-12-11T15:03:35;37.38;;;16.33;;
37851;SDS011;23691;52.486;4.650;2022-12-11T15:08:55;45.60;;;18.17;;
37851;SDS011;23691;52.486;4.650;2022-12-11T15:11:21;43.15;;;17.15;;
37851;SDS011;23691;52.486;4.650;2022-12-11T15:16:23;63.03;;;33.40;;
37851;SDS011;23691;52.486;4.650;2022-12-11T15:18:51;52.92;;;31.40;;
37851;SDS011;23691;52.486;4.650;2022-12-11T15:21:34;96.63;;;55.55;;
37851;SDS011;23691;52.486;4.650;2022-12-11T15:24:04;57.70;;;23.75;;
37851;SDS011;23691;52.486;4.650;2022-12-11T15:26:43;41.65;;;18.58;;
37851;SDS011;23691;52.486;4.650;2022-12-11T15:34:45;42.25;;;16.98;;
37851;SDS011;23691;52.486;4.650;2022-12-11T15:39:59;60.45;;;34.47;;
37851;SDS011;23691;52.486;4.650;2022-12-11T15:42:31;55.33;;;32.67;;
37851;SDS011;23691;52.486;4.650;2022-12-11T15:45:00;53.63;;;31.13;;
37851;SDS011;23691;52.486;4.650;2022-12-11T15:47:28;42.63;;;17.23;;
37851;SDS011;23691;52.486;4.650;2022-12-11T15:50:06;41.35;;;16.52;;
37851;SDS011;23691;52.486;4.650;2022-12-11T15:52:52;54.33;;;32.05;;
37851;SDS011;23691;52.486;4.650;2022-12-11T15:55:19;51.08;;;31.10;;
37851;SDS011;23691;52.486;4.650;2022-12-11T15:57:48;51.45;;;30.50;;
37851;SDS011;23691;52.486;4.650;2022-12-11T16:00:17;41.03;;;17.50;;
37851;SDS011;23691;52.486;4.650;2022-12-11T16:02:44;37.15;;;15.20;;
37851;SDS011;23691;52.486;4.650;2022-12-11T16:05:10;38.90;;;15.45;;
37851;SDS011;23691;52.486;4.650;2022-12-11T16:07:36;38.92;;;15.30;;
37851;SDS011;23691;52.486;4.650;2022-12-11T16:10:02;54.58;;;31.48;;
37851;SDS011;23691;52.486;4.650;2022-12-11T16:12:28;53.70;;;31.13;;
37851;SDS011;23691;52.486;4.650;2022-12-11T16:14:56;56.33;;;31.52;;
37851;SDS011;23691;52.486;4.650;2022-12-11T16:17:22;58.55;;;31.13;;
37851;SDS011;23691;52.486;4.650;2022-12-11T16:19:51;40.90;;;17.98;;
37851;SDS011;23691;52.486;4.650;2022-12-11T16:22:18;56.25;;;30.98;;
37851;SDS011;23691;52.486;4.650;2022-12-11T16:24:44;55.72;;;31.55;;
37851;SDS011;23691;52.486;4.650;2022-12-11T16:27:12;42.58;;;17.20;;
37851;SDS011;23691;52.486;4.650;2022-12-11T16:29:54;36.95;;;15.90;;
37851;SDS011;23691;52.486;4.650;2022-12-11T16:32:19;36.03;;;15.18;;
37851;SDS011;23691;52.486;4.650;2022-12-11T16:34:50;50.67;;;29.77;;
37851;SDS011;23691;52.486;4.650;2022-12-11T16:37:19;37.65;;;15.60;;
37851;SDS011;23691;52.486;4.650;2022-12-11T16:39:56;38.63;;;15.80;;
37851;SDS011;23691;52.486;4.650;2022-12-11T16:42:22;36.90;;;17.02;;
37851;SDS011;23691;52.486;4.650;2022-12-11T16:44:47;40.58;;;18.02;;
37851;SDS011;23691;52.486;4.650;2022-12-11T16:47:13;39.20;;;17.85;;
37851;SDS011;23691;52.486;4.650;2022-12-11T16:49:38;48.95;;;29.45;;
37851;SDS011;23691;52.486;4.650;2022-12-11T16:52:06;48.05;;;29.65;;
37851;SDS011;23691;52.486;4.650;2022-12-11T16:54:32;37.53;;;16.00;;
37851;SDS011;23691;52.486;4.650;2022-12-11T16:56:57;46.53;;;27.65;;
37851;SDS011;23691;52.486;4.650;2022-12-11T16:59:24;37.35;;;15.90;;
37851;SDS011;23691;52.486;4.650;2022-12-11T17:01:49;49.13;;;29.85;;
37851;SDS011;23691;52.486;4.650;2022-12-11T17:04:15;40.72;;;18.23;;
37851;SDS011;23691;52.486;4.650;2022-12-11T17:06:41;47.03;;;28.88;;
37851;SDS011;23691;52.486;4.650;2022-12-11T17:09:25;33.90;;;16.13;;
37851;SDS011;23691;52.486;4.650;2022-12-11T17:11:50;45.92;;;27.15;;
37851;SDS011;23691;52.486;4.650;2022-12-11T17:14:16;45.15;;;27.75;;
37851;SDS011;23691;52.486;4.650;2022-12-11T17:16:42;45.85;;;26.42;;
37851;SDS011;23691;52.486;4.650;2022-12-11T17:19:13;36.08;;;15.68;;
37851;SDS011;23691;52.486;4.650;2022-12-11T17:21:44;35.20;;;14.18;;
37851;SDS011;23691;52.486;4.650;2022-12-11T17:24:13;32.08;;;14.35;;
37851;SDS011;23691;52.486;4.650;2022-12-11T17:26:42;34.10;;;14.27;;
37851;SDS011;23691;52.486;4.650;2022-12-11T17:29:08;33.95;;;13.30;;
37851;SDS011;23691;52.486;4.650;2022-12-11T17:31:36;33.75;;;15.20;;
37851;SDS011;23691;52.486;4.650;2022-12-11T17:34:01;29.92;;;14.00;;
37851;SDS011;23691;52.486;4.650;2022-12-11T17:36:28;41.38;;;24.90;;
37851;SDS011;23691;52.486;4.650;2022-12-11T17:38:54;36.17;;;15.88;;
37851;SDS011;23691;52.486;4.650;2022-12-11T17:41:20;37.38;;;23.63;;
37851;SDS011;23691;52.486;4.650;2022-12-11T17:43:46;39.97;;;24.25;;
37851;SDS011;23691;52.486;4.650;2022-12-11T17:46:22;28.20;;;13.50;;